Welcome to Northern Hawkes Bay. New Zealand.
PWS Header
      nz Flag



Hit Counter


W3C Valid W3C Valid logo


    Wairoa

Select any of the Stations below to visit their websites.










Historic Data from Weather Underground
Select the location of interest below. Wairoa is the default. Please have patience, this Data is slow to load in.
Northern Hawkes Bay Historical Data
Daily Summary for July 16, 2017 Units:  English    Metric   Both
« Previous Day
Next Day »
Daily Weekly Monthly Yearly Custom
  High: Low: Average:
Temperature: 59.5 °F 39 °F 46.4 °F
Dew Point: 45.1 °F 37.6 °F 40.5 °F
Humidity: 95% 44% 82%
Wind Speed: 14.5mph 0mph 4.3mph
Wind Gust: 22.8mph - -
Wind- - West
Pressure: 30.3 in 30.1 in -
Precipitation: 0 in    
Historical Graphs
 
 
Tabular Data for July 16, 2017
Time Temperature Dew Point Pressure Wind Wind Speed Wind Gust Humidity Rainfall Rate (Hourly) solar
00:00 59.4 °F 37.6 °F 30.2 in ENE 3.1 mph 5.4 mph 44% 0 in 70 W/m2
00:05 59.4 °F 37.6 °F 30.2 in NE 3.1 mph 5.4 mph 44% 0 in 60 W/m2
00:10 59.2 °F 37.9 °F 30.2 in ENE 3.1 mph 6 mph 45% 0 in 52 W/m2
00:15 58.8 °F 38.7 °F 30.2 in ENE 3.8 mph 6 mph 47% 0 in 45 W/m2
00:20 58.5 °F 39.4 °F 30.2 in ENE 4.5 mph 5.4 mph 49% 0 in 38 W/m2
00:25 57.7 °F 39.7 °F 30.2 in ENE 3.1 mph 5.4 mph 51% 0 in 33 W/m2
00:30 57.9 °F 40.8 °F 30.2 in ENE 2.2 mph 5.4 mph 53% 0 in 29 W/m2
00:35 57.6 °F 40.6 °F 30.2 in ENE 1.6 mph 4.5 mph 53% 0 in 23 W/m2
00:40 56.7 °F 40.6 °F 30.2 in ENE 1.6 mph 4.5 mph 55% 0 in 18 W/m2
00:45 56.5 °F 41.4 °F 30.2 in Calm   3.1 mph 57% 0 in 18 W/m2
00:50 56.5 °F 41.4 °F 30.2 in Calm   2.2 mph 57% 0 in 11 W/m2
00:55 55.4 °F 39.9 °F 30.2 in Calm   0.7 mph 56% 0 in 4 W/m2
01:00 53.8 °F 39.7 °F 30.2 in South 0.7 mph 1.6 mph 59% 0 in 1 W/m2
01:05 51.8 °F 39.9 °F 30.2 in Calm   1.6 mph 64% 0 in 0 W/m2
01:10 50.7 °F 40.3 °F 30.2 in Calm   1.6 mph 67% 0 in 0 W/m2
01:15 49.6 °F 39.6 °F 30.2 in Calm   1.6 mph 68% 0 in 0 W/m2
01:20 48.9 °F 40.3 °F 30.3 in WSW 0.7 mph 2.2 mph 72% 0 in 0 W/m2
01:25 48 °F 40.1 °F 30.2 in Calm   2.2 mph 74% 0 in 0 W/m2
01:30 47.5 °F 39.9 °F 30.3 in Calm   2.2 mph 75% 0 in 0 W/m2
01:35 47.3 °F 39.7 °F 30.3 in Calm   0.7 mph 75% 0 in 0 W/m2
01:40 47.3 °F 40.5 °F 30.3 in North 0.7 mph 2.2 mph 77% 0 in 0 W/m2
01:45 46.9 °F 40.5 °F 30.3 in North 0.7 mph 2.2 mph 78% 0 in 0 W/m2
01:50 46.6 °F 40.5 °F 30.3 in North 0.7 mph 2.2 mph 79% 0 in 0 W/m2
01:55 46.2 °F 40.6 °F 30.3 in NNW 1.6 mph 3.1 mph 81% 0 in 0 W/m2
02:00 45.7 °F 40.5 °F 30.3 in NW 1.6 mph 3.1 mph 82% 0 in 0 W/m2
02:05 45 °F 39.7 °F 30.3 in NNW 1.6 mph 2.2 mph 82% 0 in 0 W/m2
02:10 44.4 °F 39.9 °F 30.3 in North 2.2 mph 3.1 mph 84% 0 in 0 W/m2
02:15 44.1 °F 39.7 °F 30.3 in North 1.6 mph 3.1 mph 85% 0 in 0 W/m2
02:20 43.9 °F 39.7 °F 30.3 in North 2.2 mph 3.1 mph 85% 0 in 0 W/m2
02:25 43.9 °F 39.7 °F 30.3 in North 1.6 mph 3.1 mph 85% 0 in 0 W/m2
02:30 43.5 °F 39.4 °F 30.3 in North 1.6 mph 3.1 mph 85% 0 in 0 W/m2
02:35 43.3 °F 39.4 °F 30.3 in North 1.6 mph 3.1 mph 86% 0 in 0 W/m2
02:40 43.2 °F 39.4 °F 30.3 in North 1.6 mph 3.1 mph 86% 0 in 0 W/m2
02:45 42.8 °F 38.8 °F 30.3 in North 1.6 mph 3.1 mph 86% 0 in 0 W/m2
02:50 42.4 °F 39 °F 30.3 in NNW 2.2 mph 3.8 mph 88% 0 in 0 W/m2
02:56 42.3 °F 39.4 °F 30.3 in NW 1.6 mph 3.8 mph 89% 0 in 0 W/m2
03:01 42.1 °F 39.4 °F 30.3 in NNW 1.6 mph 3.8 mph 90% 0 in 0 W/m2
03:06 41.9 °F 39.6 °F 30.3 in North 2.2 mph 3.8 mph 91% 0 in 0 W/m2
03:11 41.7 °F 39.6 °F 30.3 in NNW 2.2 mph 3.8 mph 92% 0 in 0 W/m2
03:16 41.7 °F 39.6 °F 30.3 in NNW 2.2 mph 3.8 mph 92% 0 in 0 W/m2
03:21 41.7 °F 39.7 °F 30.3 in NNW 2.2 mph 3.8 mph 93% 0 in 0 W/m2
03:26 41.5 °F 39.7 °F 30.3 in NNW 2.2 mph 4.5 mph 93% 0 in 0 W/m2
03:31 41.7 °F 39.7 °F 30.3 in NNW 3.8 mph 5.4 mph 93% 0 in 0 W/m2
03:36 41.9 °F 39.9 °F 30.3 in NW 3.1 mph 5.4 mph 93% 0 in 0 W/m2
03:41 42.1 °F 40.5 °F 30.3 in NW 3.8 mph 5.4 mph 94% 0 in 0 W/m2
03:46 42.3 °F 40.6 °F 30.3 in NW 3.1 mph 5.4 mph 94% 0 in 0 W/m2
03:51 42.3 °F 40.6 °F 30.3 in NW 3.1 mph 5.4 mph 94% 0 in 0 W/m2
03:56 42.3 °F 40.6 °F 30.3 in NW 3.1 mph 4.5 mph 94% 0 in 0 W/m2
04:01 42.3 °F 40.6 °F 30.3 in NW 3.1 mph 4.5 mph 94% 0 in 0 W/m2
04:06 42.3 °F 40.6 °F 30.3 in NW 2.2 mph 4.5 mph 94% 0 in 0 W/m2
04:11 42.3 °F 40.6 °F 30.3 in NW 3.8 mph 5.4 mph 94% 0 in 0 W/m2
04:16 42.1 °F 40.5 °F 30.3 in NW 3.1 mph 5.4 mph 94% 0 in 0 W/m2
04:21 41.9 °F 40.3 °F 30.3 in NNW 2.2 mph 4.5 mph 94% 0 in 0 W/m2
04:26 41.7 °F 40.1 °F 30.3 in NW 3.8 mph 4.5 mph 94% 0 in 0 W/m2
04:28 41.7 °F 40.1 °F 30.3 in NW 3.1 mph 4.5 mph 94% 0 in 0 W/m2
04:33 41.7 °F 40.1 °F 30.3 in NW 3.8 mph 6 mph 94% 0 in 0 W/m2
04:38 41.7 °F 40.1 °F 30.3 in NNW 4.5 mph 7.6 mph 94% 0 in 0 W/m2
04:43 41.9 °F 40.3 °F 30.3 in NW 3.8 mph 7.6 mph 94% 0 in 0 W/m2
04:48 41.9 °F 40.3 °F 30.3 in NW 4.5 mph 7.6 mph 94% 0 in 0 W/m2
04:53 41.7 °F 40.1 °F 30.3 in NW 5.4 mph 6.9 mph 94% 0 in 0 W/m2
04:58 41.9 °F 40.3 °F 30.3 in NNW 5.4 mph 7.6 mph 94% 0 in 0 W/m2
05:03 41.9 °F 40.3 °F 30.3 in NNW 3.1 mph 7.6 mph 94% 0 in 0 W/m2
05:08 42.1 °F 40.5 °F 30.3 in NNW 4.5 mph 7.6 mph 94% 0 in 0 W/m2
05:13 42.1 °F 40.5 °F 30.3 in NNW 6 mph 9.2 mph 94% 0 in 0 W/m2
05:18 42.1 °F 40.3 °F 30.3 in NNW 3.8 mph 9.2 mph 93% 0 in 0 W/m2
05:23 42.1 °F 40.3 °F 30.3 in NNW 3.1 mph 6.9 mph 93% 0 in 0 W/m2
05:28 41.9 °F 39.9 °F 30.3 in North 2.2 mph 6.9 mph 93% 0 in 0 W/m2
05:33 41.9 °F 39.9 °F 30.3 in NNW 3.1 mph 5.4 mph 93% 0 in 0 W/m2
05:38 41.9 °F 39.9 °F 30.3 in NW 2.2 mph 5.4 mph 93% 0 in 0 W/m2
05:43 41.7 °F 39.7 °F 30.3 in NNW 2.2 mph 5.4 mph 93% 0 in 0 W/m2
05:48 41.7 °F 39.7 °F 30.3 in NNW 0.7 mph 4.5 mph 93% 0 in 0 W/m2
05:53 41.7 °F 39.7 °F 30.3 in NNW 1.6 mph 4.5 mph 93% 0 in 0 W/m2
05:58 41.7 °F 40.1 °F 30.3 in North 1.6 mph 3.1 mph 94% 0 in 0 W/m2
06:03 41.7 °F 40.1 °F 30.3 in NNW 2.2 mph 3.8 mph 94% 0 in 0 W/m2
06:08 41.9 °F 40.3 °F 30.3 in NNW 3.8 mph 5.4 mph 94% 0 in 0 W/m2
06:13 42.1 °F 40.5 °F 30.3 in NW 3.8 mph 6.9 mph 94% 0 in 0 W/m2
06:18 42.1 °F 40.3 °F 30.3 in NNW 3.8 mph 6.9 mph 93% 0 in 0 W/m2
06:23 41.9 °F 39.9 °F 30.3 in NNW 3.8 mph 6 mph 93% 0 in 0 W/m2
06:28 41.7 °F 39.7 °F 30.3 in NNW 4.5 mph 6.9 mph 93% 0 in 0 W/m2
06:33 41.5 °F 39.7 °F 30.3 in NW 4.5 mph 7.6 mph 93% 0 in 0 W/m2
06:38 41.4 °F 39.6 °F 30.3 in NW 3.8 mph 7.6 mph 93% 0 in 0 W/m2
06:43 41.4 °F 39.6 °F 30.3 in NW 5.4 mph 8.3 mph 93% 0 in 0 W/m2
06:48 41.4 °F 39.6 °F 30.3 in NW 4.5 mph 8.3 mph 93% 0 in 0 W/m2
06:53 41.4 °F 39.6 °F 30.3 in NW 5.4 mph 8.3 mph 93% 0 in 0 W/m2
06:58 41.4 °F 39.6 °F 30.3 in NNW 4.5 mph 8.3 mph 93% 0 in 0 W/m2
07:03 41.4 °F 39.6 °F 30.3 in NNW 3.8 mph 7.6 mph 93% 0 in 0 W/m2
07:08 41.4 °F 39.6 °F 30.3 in NNW 3.8 mph 6.9 mph 93% 0 in 0 W/m2
07:13 41.2 °F 39.4 °F 30.3 in NW 4.5 mph 6 mph 93% 0 in 0 W/m2
07:18 41 °F 39 °F 30.3 in NNW 2.2 mph 6 mph 93% 0 in 0 W/m2
07:23 41 °F 39 °F 30.3 in NNW 4.5 mph 6 mph 93% 0 in 0 W/m2
07:28 40.8 °F 39.2 °F 30.3 in NW 6 mph 9.2 mph 94% 0 in 0 W/m2
07:33 40.8 °F 39.2 °F 30.3 in NW 4.5 mph 9.2 mph 94% 0 in 0 W/m2
07:38 40.8 °F 39.2 °F 30.3 in NW 6 mph 9.2 mph 94% 0 in 0 W/m2
07:43 40.6 °F 39 °F 30.3 in NW 5.4 mph 7.6 mph 94% 0 in 0 W/m2
07:48 40.8 °F 39.2 °F 30.3 in NNW 5.4 mph 9.2 mph 94% 0 in 0 W/m2
07:53 40.8 °F 39.2 °F 30.3 in NNW 4.5 mph 9.2 mph 94% 0 in 0 W/m2
07:58 40.8 °F 39.2 °F 30.3 in NNW 3.8 mph 9.2 mph 94% 0 in 0 W/m2
08:03 40.6 °F 39 °F 30.3 in NNW 4.5 mph 6.9 mph 94% 0 in 0 W/m2
08:08 40.5 °F 38.8 °F 30.3 in NW 4.5 mph 6.9 mph 94% 0 in 0 W/m2
08:13 40.5 °F 38.8 °F 30.3 in NW 5.4 mph 7.6 mph 94% 0 in 0 W/m2
08:18 40.5 °F 38.8 °F 30.3 in NW 3.8 mph 8.3 mph 94% 0 in 0 W/m2
08:23 40.5 °F 38.8 °F 30.3 in NW 6 mph 8.3 mph 94% 0 in 0 W/m2
08:28 40.5 °F 38.8 °F 30.3 in NNW 5.4 mph 9.8 mph 94% 0 in 0 W/m2
08:33 40.6 °F 39 °F 30.3 in NNW 6 mph 9.8 mph 94% 0 in 0 W/m2
08:38 40.6 °F 39 °F 30.3 in NNW 5.4 mph 9.2 mph 94% 0 in 0 W/m2
08:43 40.5 °F 38.8 °F 30.3 in NNW 5.4 mph 8.3 mph 94% 0 in 0 W/m2
08:48 40.5 °F 38.8 °F 30.3 in North 5.4 mph 9.8 mph 94% 0 in 0 W/m2
08:53 40.5 °F 38.8 °F 30.3 in NNW 6.9 mph 9.8 mph 94% 0 in 0 W/m2
08:58 40.3 °F 38.7 °F 30.3 in NW 6.9 mph 10.7 mph 94% 0 in 0 W/m2
09:03 40.3 °F 38.7 °F 30.3 in NW 3.1 mph 10.7 mph 94% 0 in 0 W/m2
09:08 40.1 °F 38.5 °F 30.3 in NNW 2.2 mph 10.7 mph 94% 0 in 0 W/m2
09:13 40.1 °F 38.5 °F 30.3 in NNW 1.6 mph 6 mph 94% 0 in 0 W/m2
09:18 40.1 °F 38.5 °F 30.3 in NNW 2.2 mph 4.5 mph 94% 0 in 0 W/m2
09:23 39.9 °F 38.3 °F 30.3 in NNW 5.4 mph 6.9 mph 94% 0 in 0 W/m2
09:28 40.3 °F 38.7 °F 30.3 in NNW 3.1 mph 6.9 mph 94% 0 in 0 W/m2
09:33 40.3 °F 38.7 °F 30.3 in NNW 3.1 mph 6.9 mph 94% 0 in 0 W/m2
09:38 40.3 °F 38.7 °F 30.3 in NNW 3.1 mph 5.4 mph 94% 0 in 0 W/m2
09:43 40.1 °F 38.5 °F 30.3 in NNW 3.8 mph 6 mph 94% 0 in 0 W/m2
09:48 39.7 °F 38.1 °F 30.3 in NNW 5.4 mph 7.6 mph 94% 0 in 0 W/m2
09:53 39.7 °F 38.1 °F 30.3 in NNW 5.4 mph 9.2 mph 94% 0 in 0 W/m2
09:58 39.7 °F 38.1 °F 30.3 in NW 5.4 mph 9.2 mph 94% 0 in 0 W/m2
10:03 39.7 °F 38.1 °F 30.3 in NW 4.5 mph 9.2 mph 94% 0 in 0 W/m2
10:08 39.6 °F 37.9 °F 30.3 in NNW 4.5 mph 9.2 mph 94% 0 in 0 W/m2
10:13 39.6 °F 37.9 °F 30.3 in NNW 4.5 mph 6.9 mph 94% 0 in 0 W/m2
10:18 39.4 °F 37.8 °F 30.3 in NNW 6.9 mph 9.2 mph 94% 0 in 0 W/m2
10:23 39.7 °F 38.1 °F 30.3 in NNW 5.4 mph 9.2 mph 94% 0 in 0 W/m2
10:28 39.9 °F 38.3 °F 30.3 in NNW 4.5 mph 9.2 mph 94% 0 in 0 W/m2
10:33 39.9 °F 38.3 °F 30.3 in NNW 5.4 mph 9.2 mph 94% 0 in 0 W/m2
10:38 39.9 °F 38.3 °F 30.3 in NNW 3.1 mph 9.2 mph 94% 0 in 0 W/m2
10:43 39.9 °F 38.3 °F 30.2 in NNW 5.4 mph 9.2 mph 94% 0 in 0 W/m2
10:48 39.7 °F 38.1 °F 30.2 in NNW 5.4 mph 8.3 mph 94% 0 in 0 W/m2
10:53 39.7 °F 38.1 °F 30.2 in NNW 5.4 mph 8.3 mph 94% 0 in 0 W/m2
10:58 39.7 °F 38.1 °F 30.2 in NNW 6 mph 9.2 mph 94% 0 in 0 W/m2
11:03 39.6 °F 37.9 °F 30.2 in NNW 5.4 mph 9.2 mph 94% 0 in 0 W/m2
11:08 39.4 °F 37.8 °F 30.2 in NNW 3.8 mph 9.2 mph 94% 0 in 0 W/m2
11:13 39.2 °F 37.6 °F 30.2 in NNW 5.4 mph 8.3 mph 94% 0 in 0 W/m2
11:18 39.2 °F 37.6 °F 30.2 in NNW 5.4 mph 8.3 mph 94% 0 in 0 W/m2
11:23 39 °F 37.8 °F 30.2 in NNW 5.4 mph 8.3 mph 95% 0 in 0 W/m2
11:28 39.2 °F 37.6 °F 30.2 in NNW 5.4 mph 8.3 mph 94% 0 in 0 W/m2
11:33 39.2 °F 37.6 °F 30.2 in NNW 6 mph 10.7 mph 94% 0 in 0 W/m2
11:38 39 °F 37.8 °F 30.2 in NNW 6 mph 10.7 mph 95% 0 in 0 W/m2
11:43 39.2 °F 37.6 °F 30.2 in NNW 6.9 mph 9.8 mph 94% 0 in 0 W/m2
11:48 39.2 °F 37.6 °F 30.2 in NNW 6.9 mph 9.8 mph 94% 0 in 0 W/m2
11:53 39.2 °F 37.6 °F 30.2 in NW 4.5 mph 10.7 mph 94% 0 in 0 W/m2
11:58 39.4 °F 37.8 °F 30.2 in NNW 6 mph 10.7 mph 94% 0 in 0 W/m2
12:03 39.6 °F 37.9 °F 30.2 in NNW 6.9 mph 10.7 mph 94% 0 in 0 W/m2
12:08 39.7 °F 38.1 °F 30.2 in North 6.9 mph 10.7 mph 94% 0 in 0 W/m2
12:13 39.7 °F 38.1 °F 30.2 in NNW 6.9 mph 10.7 mph 94% 0 in 0 W/m2
12:18 39.9 °F 38.3 °F 30.2 in NNW 5.4 mph 9.8 mph 94% 0 in 0 W/m2
12:23 39.9 °F 38.3 °F 30.2 in NNW 5.4 mph 9.8 mph 94% 0 in 0 W/m2
12:28 40.1 °F 38.5 °F 30.2 in NNW 3.8 mph 9.2 mph 94% 0 in 0 W/m2
12:33 40.3 °F 38.7 °F 30.2 in NNW 4.5 mph 8.3 mph 94% 0 in 0 W/m2
12:38 40.5 °F 38.8 °F 30.2 in North 3.8 mph 8.3 mph 94% 0 in 0 W/m2
12:43 40.6 °F 38.8 °F 30.2 in NNW 6.9 mph 9.2 mph 93% 0 in 0 W/m2
12:48 40.5 °F 38.7 °F 30.2 in NNW 3.8 mph 9.2 mph 93% 0 in 0 W/m2
12:54 39.9 °F 37.8 °F 30.2 in NNW 5.4 mph 8.3 mph 92% 0 in 0 W/m2
12:59 39.7 °F 37.6 °F 30.2 in NNW 5.4 mph 8.3 mph 92% 0 in 0 W/m2
13:04 39.7 °F 37.9 °F 30.2 in NNW 3.8 mph 8.3 mph 93% 0 in 0 W/m2
13:09 39.9 °F 38.1 °F 30.2 in North 3.1 mph 8.3 mph 93% 0 in 0 W/m2
13:14 39.9 °F 38.1 °F 30.2 in NNW 3.1 mph 6.9 mph 93% 0 in 0 W/m2
13:19 39.9 °F 38.1 °F 30.2 in NNW 3.8 mph 6.9 mph 93% 0 in 0 W/m2
13:24 39.9 °F 38.1 °F 30.2 in NNW 4.5 mph 6 mph 93% 0 in 0 W/m2
13:29 39.9 °F 38.1 °F 30.2 in NW 3.8 mph 6 mph 93% 0 in 0 W/m2
13:34 40.1 °F 38.1 °F 30.2 in NW 3.8 mph 7.6 mph 93% 0 in 0 W/m2
13:39 40.1 °F 38.1 °F 30.2 in NW 3.8 mph 7.6 mph 93% 0 in 0 W/m2
13:44 39.9 °F 38.1 °F 30.2 in NNW 3.1 mph 6.9 mph 93% 0 in 0 W/m2
13:49 39.9 °F 38.1 °F 30.2 in NNW 3.8 mph 6.9 mph 93% 0 in 0 W/m2
13:59 39.7 °F 37.9 °F 30.2 in NNW 3.1 mph 6.9 mph 93% 0 in 0 W/m2
14:04 39.7 °F 37.9 °F 30.2 in NNW 3.8 mph 6.9 mph 93% 0 in 0 W/m2
14:09 39.7 °F 37.9 °F 30.2 in NNW 3.8 mph 6.9 mph 93% 0 in 0 W/m2
14:14 39.9 °F 38.3 °F 30.2 in NW 3.8 mph 9.8 mph 94% 0 in 0 W/m2
14:19 40.3 °F 38.7 °F 30.2 in NW 3.8 mph 9.8 mph 94% 0 in 0 W/m2
14:24 40.1 °F 38.5 °F 30.2 in NW 6.9 mph 9.8 mph 94% 0 in 0 W/m2
14:29 40.1 °F 38.1 °F 30.2 in NNW 5.4 mph 10.7 mph 93% 0 in 0 W/m2
14:34 39.9 °F 38.1 °F 30.2 in NNW 3.8 mph 10.7 mph 93% 0 in 0 W/m2
14:39 39.7 °F 37.9 °F 30.2 in NW 4.5 mph 8.3 mph 93% 0 in 0 W/m2
14:44 39.6 °F 37.8 °F 30.2 in NW 5.4 mph 8.3 mph 93% 0 in 0 W/m2
14:49 39.6 °F 37.8 °F 30.2 in NW 5.4 mph 7.6 mph 93% 0 in 0 W/m2
14:54 39.4 °F 37.6 °F 30.2 in NW 5.4 mph 8.3 mph 93% 0 in 0 W/m2
14:59 39.4 °F 37.8 °F 30.2 in NW 6 mph 9.2 mph 94% 0 in 0 W/m2
15:04 39.6 °F 37.9 °F 30.2 in NW 5.4 mph 9.2 mph 94% 0 in 0 W/m2
15:09 39.9 °F 38.3 °F 30.2 in NW 6 mph 8.3 mph 94% 0 in 0 W/m2
15:14 40.1 °F 38.5 °F 30.2 in NNW 6 mph 9.2 mph 94% 0 in 0 W/m2
15:19 40.1 °F 38.5 °F 30.2 in NNW 6 mph 9.2 mph 94% 0 in 0 W/m2
15:24 39.9 °F 38.1 °F 30.2 in NW 5.4 mph 9.2 mph 93% 0 in 0 W/m2
15:29 39.9 °F 38.1 °F 30.2 in NNW 3.8 mph 9.2 mph 93% 0 in 2 W/m2
15:34 40.1 °F 38.1 °F 30.2 in NNW 4.5 mph 9.2 mph 93% 0 in 5 W/m2
15:39 40.5 °F 38.7 °F 30.2 in NNW 4.5 mph 9.2 mph 93% 0 in 17 W/m2
15:44 40.8 °F 39 °F 30.2 in NNW 6 mph 9.2 mph 93% 0 in 40 W/m2
15:49 41.4 °F 39.2 °F 30.2 in NNW 4.5 mph 8.3 mph 92% 0 in 53 W/m2
15:54 41.9 °F 39.7 °F 30.2 in NNW 5.4 mph 8.3 mph 92% 0 in 59 W/m2
15:59 42.3 °F 39.7 °F 30.2 in NW 4.5 mph 7.6 mph 91% 0 in 79 W/m2
16:05 43 °F 39.9 °F 30.2 in NW 6 mph 8.3 mph 89% 0 in 87 W/m2
16:10 43.7 °F 40.1 °F 30.2 in NW 4.5 mph 8.3 mph 87% 0 in 97 W/m2
16:15 44.2 °F 40.3 °F 30.2 in NNW 6 mph 8.3 mph 86% 0 in 74 W/m2
16:20 44.4 °F 40.3 °F 30.2 in NNW 6.9 mph 9.2 mph 85% 0 in 89 W/m2
16:25 44.8 °F 40.3 °F 30.2 in NNW 6 mph 9.2 mph 84% 0 in 64 W/m2
16:30 45 °F 40.1 °F 30.2 in NW 5.4 mph 9.2 mph 83% 0 in 55 W/m2
16:35 44.4 °F 39.9 °F 30.2 in NNW 4.5 mph 9.2 mph 84% 0 in 62 W/m2
16:40 44.8 °F 40.3 °F 30.2 in NNW 4.5 mph 7.6 mph 84% 0 in 68 W/m2
16:45 45.1 °F 40.6 °F 30.2 in NNW 4.5 mph 7.6 mph 84% 0 in 61 W/m2
16:51 46.8 °F 42.4 °F 30.2 in NNW 6.9 mph 9.8 mph 85% 0 in 131 W/m2
16:56 48.6 °F 42.6 °F 30.2 in North 6 mph 10.7 mph 80% 0 in 176 W/m2
17:01 49.6 °F 42.4 °F 30.2 in NNW 6 mph 10.7 mph 76% 0 in 189 W/m2
17:06 49.6 °F 42.1 °F 30.2 in NNW 4.5 mph 9.8 mph 75% 0 in 183 W/m2
17:11 49.3 °F 41.7 °F 30.2 in NNW 3.1 mph 9.8 mph 75% 0 in 81 W/m2
17:16 48.4 °F 41.2 °F 30.2 in NNW 6 mph 9.2 mph 76% 0 in 203 W/m2
17:21 49.3 °F 42.4 °F 30.2 in NNW 5.4 mph 9.2 mph 77% 0 in 104 W/m2
17:26 50 °F 42.4 °F 30.2 in NNW 9.2 mph 11.4 mph 75% 0 in 90 W/m2
17:32 50.5 °F 42.6 °F 30.2 in North 5.4 mph 11.4 mph 74% 0 in 94 W/m2
17:37 50.5 °F 42.6 °F 30.2 in North 6 mph 9.8 mph 74% 0 in 115 W/m2
17:42 51.4 °F 43.3 °F 30.2 in NNW 7.6 mph 11.4 mph 74% 0 in 130 W/m2
17:47 53.8 °F 43.9 °F 30.2 in North 6 mph 12.1 mph 69% 0 in 135 W/m2
17:52 54.9 °F 43.7 °F 30.2 in North 6 mph 12.1 mph 66% 0 in 140 W/m2
17:57 55.2 °F 43.3 °F 30.2 in North 4.5 mph 13 mph 64% 0 in 114 W/m2
18:07 53.8 °F 43.2 °F 30.2 in North 6.9 mph 10.7 mph 67% 0 in 107 W/m2
18:12 54.1 °F 43.3 °F 30.2 in North 4.5 mph 9.8 mph 67% 0 in 106 W/m2
18:17 54 °F 43.5 °F 30.2 in North 5.4 mph 9.8 mph 68% 0 in 106 W/m2
18:22 54 °F 44.1 °F 30.2 in NNW 5.4 mph 10.7 mph 69% 0 in 126 W/m2
18:27 55 °F 44.8 °F 30.2 in NNW 4.5 mph 10.7 mph 68% 0 in 125 W/m2
18:32 55.2 °F 44.4 °F 30.2 in North 5.4 mph 8.3 mph 67% 0 in 109 W/m2
18:37 54.7 °F 43.9 °F 30.2 in North 3.1 mph 8.3 mph 67% 0 in 103 W/m2
18:42 54.9 °F 43.7 °F 30.2 in North 5.4 mph 8.3 mph 66% 0 in 109 W/m2
18:47 55 °F 43.5 °F 30.2 in NNE 4.5 mph 8.3 mph 65% 0 in 115 W/m2
18:52 55.8 °F 44.2 °F 30.2 in North 3.8 mph 7.6 mph 65% 0 in 121 W/m2
18:57 56.3 °F 44.8 °F 30.2 in NNE 3.8 mph 6.9 mph 65% 0 in 120 W/m2
19:02 56.3 °F 44.8 °F 30.2 in NNE 1.6 mph 6 mph 65% 0 in 120 W/m2
19:07 56.7 °F 45 °F 30.2 in North 2.2 mph 6 mph 65% 0 in 111 W/m2
19:12 56.8 °F 44.8 °F 30.2 in North 4.5 mph 6.9 mph 64% 0 in 108 W/m2
19:17 57.4 °F 45 °F 30.2 in North 4.5 mph 7.6 mph 63% 0 in 99 W/m2
19:22 56.8 °F 45.1 °F 30.2 in North 4.5 mph 7.6 mph 65% 0 in 108 W/m2
19:27 56.8 °F 45.1 °F 30.2 in NNW 4.5 mph 7.6 mph 65% 0 in 121 W/m2
19:32 56.8 °F 45.1 °F 30.2 in NNW 2.2 mph 7.6 mph 65% 0 in 126 W/m2
19:37 57.6 °F 44.8 °F 30.2 in North 3.8 mph 7.6 mph 62% 0 in 131 W/m2
19:42 57.7 °F 43.2 °F 30.2 in NNW 5.4 mph 9.8 mph 58% 0 in 114 W/m2
19:47 57.2 °F 43 °F 30.2 in North 6.9 mph 10.7 mph 59% 0 in 110 W/m2
19:52 56.8 °F 43.2 °F 30.2 in North 5.4 mph 10.7 mph 60% 0 in 121 W/m2
19:57 57 °F 43.7 °F 30.2 in North 6.9 mph 10.7 mph 61% 0 in 135 W/m2
20:02 57.4 °F 44.1 °F 30.2 in North 5.4 mph 13 mph 61% 0 in 137 W/m2
20:07 57.6 °F 43.9 °F 30.2 in North 7.6 mph 14.5 mph 60% 0 in 138 W/m2
20:12 58.3 °F 45 °F 30.2 in NNW 9.2 mph 15.9 mph 61% 0 in 159 W/m2
20:17 58.5 °F 44.6 °F 30.2 in NNW 7.6 mph 18.3 mph 60% 0 in 149 W/m2
20:22 58.1 °F 44.2 °F 30.2 in NNW 13 mph 22.8 mph 60% 0 in 142 W/m2
20:27 58.1 °F 44.2 °F 30.2 in North 7.6 mph 22.8 mph 60% 0 in 155 W/m2
20:32 59.5 °F 44.8 °F 30.2 in North 14.5 mph 22.8 mph 58% 0 in 147 W/m2
20:37 59.2 °F 43.5 °F 30.2 in NNW 11.4 mph 19.7 mph 56% 0 in 144 W/m2
20:42 59.2 °F 44.1 °F 30.2 in NNW 7.6 mph 19.7 mph 57% 0 in 131 W/m2
20:47 58.6 °F 43.9 °F 30.2 in NNW 8.3 mph 19 mph 58% 0 in 136 W/m2
20:52 59 °F 44.2 °F 30.2 in North 10.7 mph 17.4 mph 58% 0 in 140 W/m2
20:57 59 °F 43.9 °F 30.2 in North 8.3 mph 13.6 mph 57% 0 in 145 W/m2
21:02 58.5 °F 43.7 °F 30.2 in NNW 9.2 mph 16.8 mph 58% 0 in 134 W/m2
21:07 58.1 °F 43.9 °F 30.2 in NNW 7.6 mph 16.8 mph 59% 0 in 127 W/m2
21:12 57.7 °F 43.2 °F 30.2 in NNW 8.3 mph 15.2 mph 58% 0 in 123 W/m2
21:17 57.6 °F 43.9 °F 30.2 in NNW 6 mph 15.2 mph 60% 0 in 113 W/m2
21:22 57.4 °F 43.2 °F 30.2 in NNW 6.9 mph 15.2 mph 59% 0 in 118 W/m2
21:27 57.2 °F 42.6 °F 30.1 in NNW 9.2 mph 17.4 mph 58% 0 in 114 W/m2
21:32 57 °F 42.8 °F 30.1 in NNW 6.9 mph 17.4 mph 59% 0 in 102 W/m2
21:37 57 °F 43.3 °F 30.1 in NNW 9.8 mph 16.8 mph 60% 0 in 97 W/m2
21:42 56.5 °F 42.8 °F 30.1 in North 6.9 mph 16.8 mph 60% 0 in 85 W/m2
21:47 56.5 °F 43.2 °F 30.1 in NNW 9.2 mph 16.8 mph 61% 0 in 71 W/m2
21:52 56.5 °F 43.2 °F 30.1 in NNW 9.2 mph 15.2 mph 61% 0 in 66 W/m2
21:57 56.5 °F 43.2 °F 30.1 in NNW 8.3 mph 13 mph 61% 0 in 68 W/m2
22:02 56.5 °F 43.2 °F 30.1 in NNW 3.1 mph 12.1 mph 61% 0 in 65 W/m2
22:07 56.5 °F 43.5 °F 30.1 in NNW 3.8 mph 9.8 mph 62% 0 in 55 W/m2
22:12 56.3 °F 43.9 °F 30.1 in North 3.1 mph 6 mph 63% 0 in 51 W/m2
22:17 56.1 °F 44.1 °F 30.1 in North 1.6 mph 8.3 mph 64% 0 in 47 W/m2
22:22 55.9 °F 44.4 °F 30.1 in North 3.1 mph 8.3 mph 65% 0 in 42 W/m2
22:27 55.8 °F 44.2 °F 30.1 in NNE 3.1 mph 6.9 mph 65% 0 in 40 W/m2
22:32 55.8 °F 44.2 °F 30.1 in North 2.2 mph 8.3 mph 65% 0 in 40 W/m2
22:37 55.8 °F 44.2 °F 30.1 in North 1.6 mph 8.3 mph 65% 0 in 40 W/m2
22:42 55.6 °F 44.1 °F 30.1 in North 1.6 mph 5.4 mph 65% 0 in 38 W/m2
22:47 55.6 °F 44.1 °F 30.1 in North 1.6 mph 4.5 mph 65% 0 in 37 W/m2
22:52 55.4 °F 43.9 °F 30.1 in North 3.1 mph 4.5 mph 65% 0 in 33 W/m2
22:57 55.4 °F 43.9 °F 30.1 in NNE 3.1 mph 6.9 mph 65% 0 in 29 W/m2
23:02 55.2 °F 43.3 °F 30.1 in NNE 1.6 mph 6.9 mph 64% 0 in 28 W/m2
23:07 55 °F 43.2 °F 30.1 in NE 1.6 mph 4.5 mph 64% 0 in 28 W/m2
23:12 55 °F 43.2 °F 30.1 in NNE 2.2 mph 3.8 mph 64% 0 in 29 W/m2
23:17 54.9 °F 43 °F 30.1 in North 1.6 mph 3.1 mph 64% 0 in 30 W/m2
23:22 54.9 °F 43 °F 30.1 in North 3.8 mph 4.5 mph 64% 0 in 31 W/m2
23:27 54.9 °F 43 °F 30.1 in North 3.1 mph 6 mph 64% 0 in 29 W/m2
23:32 54.7 °F 42.8 °F 30.1 in NNW 3.1 mph 6 mph 64% 0 in 29 W/m2
23:37 54.9 °F 42.4 °F 30.1 in NNW 1.6 mph 5.4 mph 63% 0 in 27 W/m2
23:42 55 °F 42.3 °F 30.1 in North 3.1 mph 6 mph 62% 0 in 25 W/m2
23:47 55 °F 42.3 °F 30.1 in North 3.1 mph 6 mph 62% 0 in 22 W/m2
23:52 55 °F 42.3 °F 30.1 in NNE 3.8 mph 6.9 mph 62% 0 in 20 W/m2
23:57 55 °F 42.3 °F 30.1 in NNE 3.1 mph 6.9 mph 62% 0 in 20 W/m2
Northern Hawkes Bay. New Zealand Historic Data
Compliments of Weather Underground - 2 mb